sensor_id;sensor_type;location;lat;lon;timestamp;P1;durP1;ratioP1;P2;durP2;ratioP2
38609;SDS011;24367;51.640;9.566;2023-06-22T00:00:33;11.18;;;7.68;;
38609;SDS011;24367;51.640;9.566;2023-06-22T00:02:59;10.85;;;8.23;;
38609;SDS011;24367;51.640;9.566;2023-06-22T00:05:25;10.85;;;8.35;;
38609;SDS011;24367;51.640;9.566;2023-06-22T00:07:52;9.80;;;8.05;;
38609;SDS011;24367;51.640;9.566;2023-06-22T00:10:18;8.55;;;7.70;;
38609;SDS011;24367;51.640;9.566;2023-06-22T00:12:45;10.10;;;8.57;;
38609;SDS011;24367;51.640;9.566;2023-06-22T00:15:12;9.48;;;8.32;;
38609;SDS011;24367;51.640;9.566;2023-06-22T00:17:39;13.43;;;8.60;;
38609;SDS011;24367;51.640;9.566;2023-06-22T00:20:05;9.27;;;8.48;;
38609;SDS011;24367;51.640;9.566;2023-06-22T00:22:35;8.43;;;7.63;;
38609;SDS011;24367;51.640;9.566;2023-06-22T00:25:04;8.07;;;7.28;;
38609;SDS011;24367;51.640;9.566;2023-06-22T00:27:31;9.40;;;7.55;;
38609;SDS011;24367;51.640;9.566;2023-06-22T00:29:58;8.55;;;7.50;;
38609;SDS011;24367;51.640;9.566;2023-06-22T00:32:25;10.73;;;7.55;;
38609;SDS011;24367;51.640;9.566;2023-06-22T00:34:52;8.93;;;7.28;;
38609;SDS011;24367;51.640;9.566;2023-06-22T00:37:18;9.77;;;7.45;;
38609;SDS011;24367;51.640;9.566;2023-06-22T00:39:44;8.45;;;7.53;;
38609;SDS011;24367;51.640;9.566;2023-06-22T00:42:11;8.10;;;7.30;;
38609;SDS011;24367;51.640;9.566;2023-06-22T00:44:37;9.90;;;7.65;;
38609;SDS011;24367;51.640;9.566;2023-06-22T00:47:03;8.52;;;7.63;;
38609;SDS011;24367;51.640;9.566;2023-06-22T00:49:33;8.68;;;7.80;;
38609;SDS011;24367;51.640;9.566;2023-06-22T00:51:59;8.10;;;7.30;;
38609;SDS011;24367;51.640;9.566;2023-06-22T00:54:26;8.73;;;7.88;;
38609;SDS011;24367;51.640;9.566;2023-06-22T00:56:53;11.32;;;8.27;;
38609;SDS011;24367;51.640;9.566;2023-06-22T00:59:21;10.23;;;8.70;;
38609;SDS011;24367;51.640;9.566;2023-06-22T01:01:48;10.48;;;8.27;;
38609;SDS011;24367;51.640;9.566;2023-06-22T01:04:14;19.23;;;8.35;;
38609;SDS011;24367;51.640;9.566;2023-06-22T01:06:44;12.38;;;8.68;;
38609;SDS011;24367;51.640;9.566;2023-06-22T01:09:15;17.35;;;8.35;;
38609;SDS011;24367;51.640;9.566;2023-06-22T01:11:42;14.05;;;8.43;;
38609;SDS011;24367;51.640;9.566;2023-06-22T01:14:12;11.50;;;8.23;;
38609;SDS011;24367;51.640;9.566;2023-06-22T01:16:40;14.27;;;7.90;;
38609;SDS011;24367;51.640;9.566;2023-06-22T01:19:09;17.17;;;8.68;;
38609;SDS011;24367;51.640;9.566;2023-06-22T01:21:48;16.23;;;8.75;;
38609;SDS011;24367;51.640;9.566;2023-06-22T01:24:17;15.95;;;9.35;;
38609;SDS011;24367;51.640;9.566;2023-06-22T01:26:48;16.45;;;9.40;;
38609;SDS011;24367;51.640;9.566;2023-06-22T01:29:21;11.75;;;8.45;;
38609;SDS011;24367;51.640;9.566;2023-06-22T01:31:49;14.10;;;7.88;;
38609;SDS011;24367;51.640;9.566;2023-06-22T01:34:16;14.45;;;8.73;;
38609;SDS011;24367;51.640;9.566;2023-06-22T01:36:43;11.18;;;8.48;;
38609;SDS011;24367;51.640;9.566;2023-06-22T01:39:10;17.55;;;9.00;;
38609;SDS011;24367;51.640;9.566;2023-06-22T01:41:37;11.93;;;7.72;;
38609;SDS011;24367;51.640;9.566;2023-06-22T01:44:05;12.05;;;8.73;;
38609;SDS011;24367;51.640;9.566;2023-06-22T01:46:33;15.10;;;8.30;;
38609;SDS011;24367;51.640;9.566;2023-06-22T01:49:00;15.60;;;8.52;;
38609;SDS011;24367;51.640;9.566;2023-06-22T01:51:27;12.35;;;8.85;;
38609;SDS011;24367;51.640;9.566;2023-06-22T01:53:53;21.27;;;9.63;;
38609;SDS011;24367;51.640;9.566;2023-06-22T01:56:20;13.18;;;8.82;;
38609;SDS011;24367;51.640;9.566;2023-06-22T01:58:48;11.57;;;8.60;;
38609;SDS011;24367;51.640;9.566;2023-06-22T02:01:17;17.55;;;9.30;;
38609;SDS011;24367;51.640;9.566;2023-06-22T02:03:50;13.07;;;8.13;;
38609;SDS011;24367;51.640;9.566;2023-06-22T02:06:20;14.25;;;9.00;;
38609;SDS011;24367;51.640;9.566;2023-06-22T02:09:02;14.50;;;9.35;;
38609;SDS011;24367;51.640;9.566;2023-06-22T02:11:31;13.43;;;9.00;;
38609;SDS011;24367;51.640;9.566;2023-06-22T02:13:58;16.27;;;8.85;;
38609;SDS011;24367;51.640;9.566;2023-06-22T02:16:25;11.90;;;9.27;;
38609;SDS011;24367;51.640;9.566;2023-06-22T02:18:56;10.68;;;8.20;;
38609;SDS011;24367;51.640;9.566;2023-06-22T02:21:23;11.48;;;8.60;;
38609;SDS011;24367;51.640;9.566;2023-06-22T02:23:50;15.32;;;8.70;;
38609;SDS011;24367;51.640;9.566;2023-06-22T02:26:16;12.07;;;9.05;;
38609;SDS011;24367;51.640;9.566;2023-06-22T02:28:43;14.45;;;8.85;;
38609;SDS011;24367;51.640;9.566;2023-06-22T02:31:11;12.50;;;8.95;;
38609;SDS011;24367;51.640;9.566;2023-06-22T02:33:37;13.20;;;8.55;;
38609;SDS011;24367;51.640;9.566;2023-06-22T02:36:05;12.65;;;9.02;;
38609;SDS011;24367;51.640;9.566;2023-06-22T02:38:34;12.15;;;9.18;;
38609;SDS011;24367;51.640;9.566;2023-06-22T02:41:01;11.55;;;8.02;;
38609;SDS011;24367;51.640;9.566;2023-06-22T02:43:27;13.85;;;8.80;;
38609;SDS011;24367;51.640;9.566;2023-06-22T02:45:54;10.63;;;8.43;;
38609;SDS011;24367;51.640;9.566;2023-06-22T02:48:21;17.63;;;9.48;;
38609;SDS011;24367;51.640;9.566;2023-06-22T02:50:47;13.35;;;8.85;;
38609;SDS011;24367;51.640;9.566;2023-06-22T02:53:15;12.63;;;9.32;;
38609;SDS011;24367;51.640;9.566;2023-06-22T02:55:45;17.83;;;9.48;;
38609;SDS011;24367;51.640;9.566;2023-06-22T02:58:11;13.48;;;9.50;;
38609;SDS011;24367;51.640;9.566;2023-06-22T03:00:38;16.65;;;8.98;;
38609;SDS011;24367;51.640;9.566;2023-06-22T03:03:04;17.58;;;8.65;;
38609;SDS011;24367;51.640;9.566;2023-06-22T03:05:30;13.57;;;8.85;;
38609;SDS011;24367;51.640;9.566;2023-06-22T03:08:00;17.15;;;9.85;;
38609;SDS011;24367;51.640;9.566;2023-06-22T03:10:31;15.40;;;9.13;;
38609;SDS011;24367;51.640;9.566;2023-06-22T03:12:58;14.80;;;8.82;;
38609;SDS011;24367;51.640;9.566;2023-06-22T03:15:24;13.88;;;9.30;;
38609;SDS011;24367;51.640;9.566;2023-06-22T03:17:51;13.82;;;9.27;;
38609;SDS011;24367;51.640;9.566;2023-06-22T03:20:17;14.00;;;8.55;;
38609;SDS011;24367;51.640;9.566;2023-06-22T03:22:44;15.60;;;8.48;;
38609;SDS011;24367;51.640;9.566;2023-06-22T03:25:10;13.40;;;8.77;;
38609;SDS011;24367;51.640;9.566;2023-06-22T03:27:41;14.27;;;9.02;;
38609;SDS011;24367;51.640;9.566;2023-06-22T03:30:09;13.32;;;8.80;;
38609;SDS011;24367;51.640;9.566;2023-06-22T03:32:37;13.57;;;9.40;;
38609;SDS011;24367;51.640;9.566;2023-06-22T03:35:05;10.88;;;8.48;;
38609;SDS011;24367;51.640;9.566;2023-06-22T03:37:34;14.38;;;8.52;;
38609;SDS011;24367;51.640;9.566;2023-06-22T03:40:01;14.02;;;8.35;;
38609;SDS011;24367;51.640;9.566;2023-06-22T03:42:28;14.35;;;9.00;;
38609;SDS011;24367;51.640;9.566;2023-06-22T03:44:56;12.48;;;9.35;;
38609;SDS011;24367;51.640;9.566;2023-06-22T03:47:22;14.45;;;8.70;;
38609;SDS011;24367;51.640;9.566;2023-06-22T03:49:49;15.60;;;9.15;;
38609;SDS011;24367;51.640;9.566;2023-06-22T03:52:20;13.60;;;8.88;;
38609;SDS011;24367;51.640;9.566;2023-06-22T03:54:46;15.30;;;8.57;;
38609;SDS011;24367;51.640;9.566;2023-06-22T03:57:12;15.57;;;8.93;;
38609;SDS011;24367;51.640;9.566;2023-06-22T03:59:39;12.30;;;9.02;;
38609;SDS011;24367;51.640;9.566;2023-06-22T04:02:06;13.63;;;9.13;;
38609;SDS011;24367;51.640;9.566;2023-06-22T04:04:33;9.98;;;7.68;;
38609;SDS011;24367;51.640;9.566;2023-06-22T04:07:00;15.45;;;8.90;;
38609;SDS011;24367;51.640;9.566;2023-06-22T04:09:26;12.43;;;7.65;;
38609;SDS011;24367;51.640;9.566;2023-06-22T04:11:53;14.05;;;9.02;;
38609;SDS011;24367;51.640;9.566;2023-06-22T04:14:19;16.65;;;9.52;;
38609;SDS011;24367;51.640;9.566;2023-06-22T04:16:45;10.70;;;8.85;;
38609;SDS011;24367;51.640;9.566;2023-06-22T04:19:13;14.35;;;8.63;;
38609;SDS011;24367;51.640;9.566;2023-06-22T04:21:41;12.60;;;9.35;;
38609;SDS011;24367;51.640;9.566;2023-06-22T04:24:08;13.23;;;9.07;;
38609;SDS011;24367;51.640;9.566;2023-06-22T04:26:34;15.88;;;9.23;;
38609;SDS011;24367;51.640;9.566;2023-06-22T04:29:01;14.57;;;8.73;;
38609;SDS011;24367;51.640;9.566;2023-06-22T04:31:30;12.75;;;8.38;;
38609;SDS011;24367;51.640;9.566;2023-06-22T04:34:01;13.70;;;8.35;;
38609;SDS011;24367;51.640;9.566;2023-06-22T04:36:33;19.98;;;9.13;;
38609;SDS011;24367;51.640;9.566;2023-06-22T04:39:02;12.27;;;9.05;;
38609;SDS011;24367;51.640;9.566;2023-06-22T04:41:30;13.88;;;8.80;;
38609;SDS011;24367;51.640;9.566;2023-06-22T04:44:06;17.35;;;9.45;;
38609;SDS011;24367;51.640;9.566;2023-06-22T04:46:33;14.60;;;8.43;;
38609;SDS011;24367;51.640;9.566;2023-06-22T04:49:04;16.20;;;9.45;;
38609;SDS011;24367;51.640;9.566;2023-06-22T04:51:38;14.48;;;8.75;;
38609;SDS011;24367;51.640;9.566;2023-06-22T04:54:05;10.30;;;8.88;;
38609;SDS011;24367;51.640;9.566;2023-06-22T04:56:32;13.95;;;9.25;;
38609;SDS011;24367;51.640;9.566;2023-06-22T04:58:58;16.23;;;9.95;;
38609;SDS011;24367;51.640;9.566;2023-06-22T05:01:25;13.07;;;8.98;;
38609;SDS011;24367;51.640;9.566;2023-06-22T05:03:51;12.13;;;8.55;;
38609;SDS011;24367;51.640;9.566;2023-06-22T05:06:20;11.63;;;8.57;;
38609;SDS011;24367;51.640;9.566;2023-06-22T05:08:48;13.55;;;9.23;;
38609;SDS011;24367;51.640;9.566;2023-06-22T05:11:14;11.18;;;8.70;;
38609;SDS011;24367;51.640;9.566;2023-06-22T05:13:41;13.48;;;9.25;;
38609;SDS011;24367;51.640;9.566;2023-06-22T05:16:07;14.68;;;8.75;;
38609;SDS011;24367;51.640;9.566;2023-06-22T05:18:33;15.55;;;9.48;;
38609;SDS011;24367;51.640;9.566;2023-06-22T05:21:00;12.80;;;9.13;;
38609;SDS011;24367;51.640;9.566;2023-06-22T05:23:26;12.77;;;9.68;;
38609;SDS011;24367;51.640;9.566;2023-06-22T05:25:54;12.18;;;9.13;;
38609;SDS011;24367;51.640;9.566;2023-06-22T05:28:22;15.45;;;9.43;;
38609;SDS011;24367;51.640;9.566;2023-06-22T05:30:49;10.68;;;8.35;;
38609;SDS011;24367;51.640;9.566;2023-06-22T05:33:17;11.30;;;8.77;;
38609;SDS011;24367;51.640;9.566;2023-06-22T05:35:43;12.00;;;8.75;;
38609;SDS011;24367;51.640;9.566;2023-06-22T05:38:09;10.35;;;9.07;;
38609;SDS011;24367;51.640;9.566;2023-06-22T05:40:36;14.43;;;8.65;;
38609;SDS011;24367;51.640;9.566;2023-06-22T05:43:03;15.88;;;8.60;;
38609;SDS011;24367;51.640;9.566;2023-06-22T05:45:30;12.80;;;7.95;;
38609;SDS011;24367;51.640;9.566;2023-06-22T05:47:56;11.77;;;7.68;;
38609;SDS011;24367;51.640;9.566;2023-06-22T05:50:22;11.65;;;8.25;;
38609;SDS011;24367;51.640;9.566;2023-06-22T05:52:49;14.55;;;7.82;;
38609;SDS011;24367;51.640;9.566;2023-06-22T05:55:15;11.15;;;8.18;;
38609;SDS011;24367;51.640;9.566;2023-06-22T05:57:43;10.43;;;7.45;;
38609;SDS011;24367;51.640;9.566;2023-06-22T06:00:12;13.80;;;8.02;;
38609;SDS011;24367;51.640;9.566;2023-06-22T06:02:39;8.57;;;7.40;;
38609;SDS011;24367;51.640;9.566;2023-06-22T06:05:09;11.15;;;7.80;;
38609;SDS011;24367;51.640;9.566;2023-06-22T06:07:36;11.65;;;7.70;;
38609;SDS011;24367;51.640;9.566;2023-06-22T06:10:03;8.70;;;7.30;;
38609;SDS011;24367;51.640;9.566;2023-06-22T06:12:31;8.85;;;7.60;;
38609;SDS011;24367;51.640;9.566;2023-06-22T06:14:57;10.55;;;7.35;;
38609;SDS011;24367;51.640;9.566;2023-06-22T06:17:25;9.80;;;7.00;;
38609;SDS011;24367;51.640;9.566;2023-06-22T06:19:51;12.73;;;7.28;;
38609;SDS011;24367;51.640;9.566;2023-06-22T06:22:18;7.97;;;6.93;;
38609;SDS011;24367;51.640;9.566;2023-06-22T06:24:46;10.23;;;6.95;;
38609;SDS011;24367;51.640;9.566;2023-06-22T06:27:12;7.80;;;6.85;;
38609;SDS011;24367;51.640;9.566;2023-06-22T06:29:39;8.07;;;7.03;;
38609;SDS011;24367;51.640;9.566;2023-06-22T06:32:05;7.93;;;6.88;;
38609;SDS011;24367;51.640;9.566;2023-06-22T06:34:35;9.63;;;7.20;;
38609;SDS011;24367;51.640;9.566;2023-06-22T06:37:01;8.65;;;6.45;;
38609;SDS011;24367;51.640;9.566;2023-06-22T06:39:27;8.52;;;6.80;;
38609;SDS011;24367;51.640;9.566;2023-06-22T06:41:54;8.27;;;6.57;;
38609;SDS011;24367;51.640;9.566;2023-06-22T06:44:20;7.13;;;6.22;;
38609;SDS011;24367;51.640;9.566;2023-06-22T06:46:47;9.20;;;6.57;;
38609;SDS011;24367;51.640;9.566;2023-06-22T06:49:13;7.55;;;6.85;;
38609;SDS011;24367;51.640;9.566;2023-06-22T06:51:41;9.50;;;6.53;;
38609;SDS011;24367;51.640;9.566;2023-06-22T06:54:07;7.80;;;6.18;;
38609;SDS011;24367;51.640;9.566;2023-06-22T06:56:34;7.78;;;6.25;;
38609;SDS011;24367;51.640;9.566;2023-06-22T06:59:01;6.63;;;6.13;;
38609;SDS011;24367;51.640;9.566;2023-06-22T07:01:27;7.45;;;6.72;;
38609;SDS011;24367;51.640;9.566;2023-06-22T07:03:58;8.40;;;6.50;;
38609;SDS011;24367;51.640;9.566;2023-06-22T07:06:25;6.88;;;6.18;;
38609;SDS011;24367;51.640;9.566;2023-06-22T07:08:55;7.07;;;6.38;;
38609;SDS011;24367;51.640;9.566;2023-06-22T07:11:22;6.63;;;6.03;;
38609;SDS011;24367;51.640;9.566;2023-06-22T07:13:48;10.15;;;6.95;;
38609;SDS011;24367;51.640;9.566;2023-06-22T07:16:14;10.38;;;6.38;;
38609;SDS011;24367;51.640;9.566;2023-06-22T07:18:41;7.32;;;5.80;;
38609;SDS011;24367;51.640;9.566;2023-06-22T07:21:07;8.75;;;6.45;;
38609;SDS011;24367;51.640;9.566;2023-06-22T07:23:34;9.45;;;5.88;;
38609;SDS011;24367;51.640;9.566;2023-06-22T07:26:01;8.45;;;6.53;;
38609;SDS011;24367;51.640;9.566;2023-06-22T07:28:28;7.55;;;6.45;;
38609;SDS011;24367;51.640;9.566;2023-06-22T07:30:56;10.80;;;6.50;;
38609;SDS011;24367;51.640;9.566;2023-06-22T07:33:22;6.95;;;6.10;;
38609;SDS011;24367;51.640;9.566;2023-06-22T07:35:49;6.35;;;5.75;;
38609;SDS011;24367;51.640;9.566;2023-06-22T07:38:17;7.30;;;6.22;;
38609;SDS011;24367;51.640;9.566;2023-06-22T07:40:43;6.55;;;5.72;;
38609;SDS011;24367;51.640;9.566;2023-06-22T07:43:11;7.43;;;5.57;;
38609;SDS011;24367;51.640;9.566;2023-06-22T07:45:38;7.60;;;6.55;;
38609;SDS011;24367;51.640;9.566;2023-06-22T07:48:05;6.15;;;5.65;;
38609;SDS011;24367;51.640;9.566;2023-06-22T07:50:32;6.78;;;6.10;;
38609;SDS011;24367;51.640;9.566;2023-06-22T07:52:58;7.47;;;6.38;;
38609;SDS011;24367;51.640;9.566;2023-06-22T07:55:25;7.07;;;6.32;;
38609;SDS011;24367;51.640;9.566;2023-06-22T07:57:51;6.90;;;6.20;;
38609;SDS011;24367;51.640;9.566;2023-06-22T08:00:19;7.40;;;6.40;;
38609;SDS011;24367;51.640;9.566;2023-06-22T08:02:46;6.13;;;5.63;;
38609;SDS011;24367;51.640;9.566;2023-06-22T08:05:13;6.55;;;5.85;;
38609;SDS011;24367;51.640;9.566;2023-06-22T08:07:40;6.18;;;5.57;;
38609;SDS011;24367;51.640;9.566;2023-06-22T08:10:09;6.43;;;5.78;;
38609;SDS011;24367;51.640;9.566;2023-06-22T08:12:36;7.07;;;6.00;;
38609;SDS011;24367;51.640;9.566;2023-06-22T08:15:03;6.65;;;5.93;;
38609;SDS011;24367;51.640;9.566;2023-06-22T08:17:31;7.40;;;6.65;;
38609;SDS011;24367;51.640;9.566;2023-06-22T08:19:58;5.57;;;5.10;;
38609;SDS011;24367;51.640;9.566;2023-06-22T08:22:24;6.70;;;5.88;;
38609;SDS011;24367;51.640;9.566;2023-06-22T08:24:51;8.65;;;6.30;;
38609;SDS011;24367;51.640;9.566;2023-06-22T08:27:17;6.30;;;5.50;;
38609;SDS011;24367;51.640;9.566;2023-06-22T08:29:46;6.32;;;5.72;;
38609;SDS011;24367;51.640;9.566;2023-06-22T08:32:12;6.03;;;5.53;;
38609;SDS011;24367;51.640;9.566;2023-06-22T08:34:40;6.10;;;5.60;;
38609;SDS011;24367;51.640;9.566;2023-06-22T08:37:07;6.25;;;5.65;;
38609;SDS011;24367;51.640;9.566;2023-06-22T08:39:34;5.68;;;4.93;;
38609;SDS011;24367;51.640;9.566;2023-06-22T08:42:00;6.75;;;5.60;;
38609;SDS011;24367;51.640;9.566;2023-06-22T08:44:27;6.07;;;5.47;;
38609;SDS011;24367;51.640;9.566;2023-06-22T08:46:53;7.97;;;5.75;;
38609;SDS011;24367;51.640;9.566;2023-06-22T08:49:20;6.60;;;6.00;;
38609;SDS011;24367;51.640;9.566;2023-06-22T08:51:48;5.93;;;5.43;;
38609;SDS011;24367;51.640;9.566;2023-06-22T08:54:17;7.35;;;5.68;;
38609;SDS011;24367;51.640;9.566;2023-06-22T08:56:43;8.88;;;5.40;;
38609;SDS011;24367;51.640;9.566;2023-06-22T08:59:10;5.88;;;5.28;;
38609;SDS011;24367;51.640;9.566;2023-06-22T09:01:36;5.88;;;5.30;;
38609;SDS011;24367;51.640;9.566;2023-06-22T09:04:03;7.05;;;5.60;;
38609;SDS011;24367;51.640;9.566;2023-06-22T09:06:31;6.45;;;5.80;;
38609;SDS011;24367;51.640;9.566;2023-06-22T09:08:58;5.35;;;4.85;;
38609;SDS011;24367;51.640;9.566;2023-06-22T09:11:25;5.82;;;5.30;;
38609;SDS011;24367;51.640;9.566;2023-06-22T09:13:51;6.00;;;5.45;;
38609;SDS011;24367;51.640;9.566;2023-06-22T09:16:18;5.50;;;5.00;;
38609;SDS011;24367;51.640;9.566;2023-06-22T09:18:46;6.07;;;5.47;;
38609;SDS011;24367;51.640;9.566;2023-06-22T09:21:13;5.50;;;4.93;;
38609;SDS011;24367;51.640;9.566;2023-06-22T09:23:39;7.97;;;6.10;;
38609;SDS011;24367;51.640;9.566;2023-06-22T09:26:07;5.97;;;5.22;;
38609;SDS011;24367;51.640;9.566;2023-06-22T09:28:34;5.68;;;5.18;;
38609;SDS011;24367;51.640;9.566;2023-06-22T09:31:00;5.88;;;5.28;;
38609;SDS011;24367;51.640;9.566;2023-06-22T09:33:27;6.05;;;5.55;;
38609;SDS011;24367;51.640;9.566;2023-06-22T09:35:53;6.03;;;5.53;;
38609;SDS011;24367;51.640;9.566;2023-06-22T09:38:21;5.95;;;5.28;;
38609;SDS011;24367;51.640;9.566;2023-06-22T09:40:47;6.35;;;5.07;;
38609;SDS011;24367;51.640;9.566;2023-06-22T09:43:15;6.07;;;5.32;;
38609;SDS011;24367;51.640;9.566;2023-06-22T09:45:41;5.45;;;4.95;;
38609;SDS011;24367;51.640;9.566;2023-06-22T09:48:08;5.97;;;5.43;;
38609;SDS011;24367;51.640;9.566;2023-06-22T09:50:34;5.70;;;5.20;;
38609;SDS011;24367;51.640;9.566;2023-06-22T09:53:01;5.20;;;4.70;;
38609;SDS011;24367;51.640;9.566;2023-06-22T09:55:28;5.80;;;5.30;;
38609;SDS011;24367;51.640;9.566;2023-06-22T09:57:54;10.77;;;5.40;;
38609;SDS011;24367;51.640;9.566;2023-06-22T10:00:22;9.88;;;5.68;;
38609;SDS011;24367;51.640;9.566;2023-06-22T10:02:48;6.47;;;5.07;;
38609;SDS011;24367;51.640;9.566;2023-06-22T10:05:15;7.30;;;4.72;;
38609;SDS011;24367;51.640;9.566;2023-06-22T10:07:42;7.22;;;5.47;;
38609;SDS011;24367;51.640;9.566;2023-06-22T10:10:09;6.70;;;5.20;;
38609;SDS011;24367;51.640;9.566;2023-06-22T10:12:36;7.60;;;5.30;;
38609;SDS011;24367;51.640;9.566;2023-06-22T10:15:02;6.40;;;5.50;;
38609;SDS011;24367;51.640;9.566;2023-06-22T10:17:30;6.45;;;5.80;;
38609;SDS011;24367;51.640;9.566;2023-06-22T10:19:57;5.95;;;5.43;;
38609;SDS011;24367;51.640;9.566;2023-06-22T10:22:23;6.63;;;5.63;;
38609;SDS011;24367;51.640;9.566;2023-06-22T10:24:49;5.78;;;5.28;;
38609;SDS011;24367;51.640;9.566;2023-06-22T10:27:16;6.40;;;5.80;;
38609;SDS011;24367;51.640;9.566;2023-06-22T10:29:42;6.50;;;5.38;;
38609;SDS011;24367;51.640;9.566;2023-06-22T10:32:08;6.38;;;5.40;;
38609;SDS011;24367;51.640;9.566;2023-06-22T10:34:36;6.03;;;5.43;;
38609;SDS011;24367;51.640;9.566;2023-06-22T10:37:03;5.57;;;4.93;;
38609;SDS011;24367;51.640;9.566;2023-06-22T10:39:29;5.28;;;4.80;;
38609;SDS011;24367;51.640;9.566;2023-06-22T10:41:56;5.57;;;5.07;;
38609;SDS011;24367;51.640;9.566;2023-06-22T10:44:22;5.55;;;5.05;;
38609;SDS011;24367;51.640;9.566;2023-06-22T10:46:48;5.38;;;4.50;;
38609;SDS011;24367;51.640;9.566;2023-06-22T10:49:15;5.55;;;5.05;;
38609;SDS011;24367;51.640;9.566;2023-06-22T10:51:43;7.25;;;5.43;;
38609;SDS011;24367;51.640;9.566;2023-06-22T10:54:09;4.82;;;4.32;;
38609;SDS011;24367;51.640;9.566;2023-06-22T10:56:35;5.35;;;4.85;;
38609;SDS011;24367;51.640;9.566;2023-06-22T10:59:02;5.30;;;4.90;;
38609;SDS011;24367;51.640;9.566;2023-06-22T11:01:28;4.95;;;4.55;;
38609;SDS011;24367;51.640;9.566;2023-06-22T11:03:56;5.15;;;4.65;;
38609;SDS011;24367;51.640;9.566;2023-06-22T11:06:22;5.38;;;4.57;;
38609;SDS011;24367;51.640;9.566;2023-06-22T11:08:50;5.35;;;4.80;;
38609;SDS011;24367;51.640;9.566;2023-06-22T11:11:16;5.70;;;5.20;;
38609;SDS011;24367;51.640;9.566;2023-06-22T11:13:43;5.13;;;4.70;;
38609;SDS011;24367;51.640;9.566;2023-06-22T11:16:09;5.15;;;4.75;;
38609;SDS011;24367;51.640;9.566;2023-06-22T11:18:36;5.47;;;4.97;;
38609;SDS011;24367;51.640;9.566;2023-06-22T11:21:03;5.40;;;4.63;;
38609;SDS011;24367;51.640;9.566;2023-06-22T11:23:29;6.03;;;4.70;;
38609;SDS011;24367;51.640;9.566;2023-06-22T11:25:57;5.32;;;4.82;;
38609;SDS011;24367;51.640;9.566;2023-06-22T11:28:23;5.15;;;4.65;;
38609;SDS011;24367;51.640;9.566;2023-06-22T11:30:49;4.95;;;4.45;;
38609;SDS011;24367;51.640;9.566;2023-06-22T11:33:16;4.43;;;4.00;;
38609;SDS011;24367;51.640;9.566;2023-06-22T11:35:42;5.13;;;4.63;;
38609;SDS011;24367;51.640;9.566;2023-06-22T11:38:08;5.38;;;4.78;;
38609;SDS011;24367;51.640;9.566;2023-06-22T11:40:35;5.32;;;4.60;;
38609;SDS011;24367;51.640;9.566;2023-06-22T11:43:03;4.93;;;4.43;;
38609;SDS011;24367;51.640;9.566;2023-06-22T11:45:29;5.18;;;4.68;;
38609;SDS011;24367;51.640;9.566;2023-06-22T11:47:55;5.15;;;4.72;;
38609;SDS011;24367;51.640;9.566;2023-06-22T11:50:22;5.03;;;4.53;;
38609;SDS011;24367;51.640;9.566;2023-06-22T11:52:48;6.43;;;4.65;;
38609;SDS011;24367;51.640;9.566;2023-06-22T11:55:15;5.18;;;4.68;;
38609;SDS011;24367;51.640;9.566;2023-06-22T11:57:52;7.88;;;4.50;;
38609;SDS011;24367;51.640;9.566;2023-06-22T12:00:20;5.85;;;4.03;;
38609;SDS011;24367;51.640;9.566;2023-06-22T12:02:49;6.40;;;4.40;;
38609;SDS011;24367;51.640;9.566;2023-06-22T12:05:16;7.10;;;4.38;;
38609;SDS011;24367;51.640;9.566;2023-06-22T12:07:42;5.43;;;3.85;;
38609;SDS011;24367;51.640;9.566;2023-06-22T12:10:09;4.75;;;4.32;;
38609;SDS011;24367;51.640;9.566;2023-06-22T12:12:35;6.72;;;4.57;;
38609;SDS011;24367;51.640;9.566;2023-06-22T12:15:02;9.10;;;4.38;;
38609;SDS011;24367;51.640;9.566;2023-06-22T12:17:30;5.47;;;4.03;;
38609;SDS011;24367;51.640;9.566;2023-06-22T12:19:56;6.30;;;4.32;;
38609;SDS011;24367;51.640;9.566;2023-06-22T12:22:23;5.10;;;4.53;;
38609;SDS011;24367;51.640;9.566;2023-06-22T12:24:49;5.93;;;4.70;;
38609;SDS011;24367;51.640;9.566;2023-06-22T12:27:16;5.38;;;4.55;;
38609;SDS011;24367;51.640;9.566;2023-06-22T12:29:43;5.88;;;4.78;;
38609;SDS011;24367;51.640;9.566;2023-06-22T12:32:09;4.85;;;4.35;;
38609;SDS011;24367;51.640;9.566;2023-06-22T12:34:39;6.15;;;4.70;;
38609;SDS011;24367;51.640;9.566;2023-06-22T12:37:05;4.53;;;4.10;;
38609;SDS011;24367;51.640;9.566;2023-06-22T12:39:32;4.78;;;4.38;;
38609;SDS011;24367;51.640;9.566;2023-06-22T12:41:58;4.40;;;4.00;;
38609;SDS011;24367;51.640;9.566;2023-06-22T12:44:25;7.65;;;5.00;;
38609;SDS011;24367;51.640;9.566;2023-06-22T12:46:51;4.85;;;4.35;;
38609;SDS011;24367;51.640;9.566;2023-06-22T12:49:18;4.30;;;3.90;;
38609;SDS011;24367;51.640;9.566;2023-06-22T12:51:45;4.75;;;4.25;;
38609;SDS011;24367;51.640;9.566;2023-06-22T12:54:12;4.40;;;4.00;;
38609;SDS011;24367;51.640;9.566;2023-06-22T12:56:38;4.70;;;4.30;;
38609;SDS011;24367;51.640;9.566;2023-06-22T12:59:04;4.00;;;3.60;;
38609;SDS011;24367;51.640;9.566;2023-06-22T13:01:31;4.40;;;4.00;;
38609;SDS011;24367;51.640;9.566;2023-06-22T13:03:58;4.68;;;4.28;;
38609;SDS011;24367;51.640;9.566;2023-06-22T13:06:24;4.63;;;4.13;;
38609;SDS011;24367;51.640;9.566;2023-06-22T13:08:52;4.78;;;4.25;;
38609;SDS011;24367;51.640;9.566;2023-06-22T13:11:19;4.38;;;3.97;;
38609;SDS011;24367;51.640;9.566;2023-06-22T13:13:45;5.22;;;4.28;;
38609;SDS011;24367;51.640;9.566;2023-06-22T13:16:12;5.30;;;4.20;;
38609;SDS011;24367;51.640;9.566;2023-06-22T13:18:38;5.32;;;4.32;;
38609;SDS011;24367;51.640;9.566;2023-06-22T13:21:05;5.05;;;4.25;;
38609;SDS011;24367;51.640;9.566;2023-06-22T13:23:31;4.53;;;4.05;;
38609;SDS011;24367;51.640;9.566;2023-06-22T13:26:00;4.93;;;4.05;;
38609;SDS011;24367;51.640;9.566;2023-06-22T13:28:27;4.85;;;4.28;;
38609;SDS011;24367;51.640;9.566;2023-06-22T13:30:55;4.35;;;3.95;;
38609;SDS011;24367;51.640;9.566;2023-06-22T13:33:21;5.15;;;4.45;;
38609;SDS011;24367;51.640;9.566;2023-06-22T13:35:47;4.72;;;4.32;;
38609;SDS011;24367;51.640;9.566;2023-06-22T13:38:14;4.30;;;3.90;;
38609;SDS011;24367;51.640;9.566;2023-06-22T13:40:42;5.47;;;4.35;;
38609;SDS011;24367;51.640;9.566;2023-06-22T13:43:10;5.28;;;4.30;;
38609;SDS011;24367;51.640;9.566;2023-06-22T13:45:36;4.80;;;4.15;;
38609;SDS011;24367;51.640;9.566;2023-06-22T13:48:03;4.60;;;3.67;;
38609;SDS011;24367;51.640;9.566;2023-06-22T13:50:30;4.70;;;4.20;;
38609;SDS011;24367;51.640;9.566;2023-06-22T13:52:56;4.72;;;4.28;;
38609;SDS011;24367;51.640;9.566;2023-06-22T13:55:23;4.30;;;3.83;;
38609;SDS011;24367;51.640;9.566;2023-06-22T13:57:49;4.40;;;3.47;;
38609;SDS011;24367;51.640;9.566;2023-06-22T14:00:18;4.43;;;4.03;;
38609;SDS011;24367;51.640;9.566;2023-06-22T14:02:45;4.72;;;4.22;;
38609;SDS011;24367;51.640;9.566;2023-06-22T14:05:11;4.40;;;3.70;;
38609;SDS011;24367;51.640;9.566;2023-06-22T14:07:37;4.20;;;3.80;;
38609;SDS011;24367;51.640;9.566;2023-06-22T14:10:04;4.68;;;4.20;;
38609;SDS011;24367;51.640;9.566;2023-06-22T14:12:31;4.78;;;4.20;;
38609;SDS011;24367;51.640;9.566;2023-06-22T14:14:58;4.90;;;4.40;;
38609;SDS011;24367;51.640;9.566;2023-06-22T14:17:25;5.05;;;3.92;;
38609;SDS011;24367;51.640;9.566;2023-06-22T14:19:52;5.68;;;3.95;;
38609;SDS011;24367;51.640;9.566;2023-06-22T14:22:18;4.22;;;3.83;;
38609;SDS011;24367;51.640;9.566;2023-06-22T14:24:45;4.47;;;4.07;;
38609;SDS011;24367;51.640;9.566;2023-06-22T14:27:11;4.28;;;3.88;;
38609;SDS011;24367;51.640;9.566;2023-06-22T14:29:38;4.10;;;3.70;;
38609;SDS011;24367;51.640;9.566;2023-06-22T14:32:04;4.22;;;3.83;;
38609;SDS011;24367;51.640;9.566;2023-06-22T14:34:33;4.18;;;3.78;;
38609;SDS011;24367;51.640;9.566;2023-06-22T14:37:01;4.55;;;4.15;;
38609;SDS011;24367;51.640;9.566;2023-06-22T14:39:27;4.25;;;3.85;;
38609;SDS011;24367;51.640;9.566;2023-06-22T14:41:53;5.00;;;3.75;;